Time;durP1;ratioP1;P1;durP2;ratioP2;P2;SDS_P1;SDS_P2;PMS_P1;PMS_P2;Temp;Humidity;BMP_temperature;BMP_pressure;BME280_temperature;BME280_humidity;BME280_pressure;Samples;Min_cycle;Max_cycle;Signal;HPM_P1;HPM_P2
2023/10/18 00:02:00;;;;;;;15.77;9.00;;;-0.20;99.90;;;;;;8403720;28;20238;-61
2023/10/18 00:06:17;;;;;;;14.47;10.07;;;-0.20;99.90;;;;;;8408832;28;20210;-61
2023/10/18 00:10:21;;;;;;;14.77;9.43;;;-0.30;99.90;;;;;;8397074;28;20528;-61
2023/10/18 00:14:22;;;;;;;15.97;9.53;;;-0.40;99.90;;;;;;8397274;28;20215;-61
2023/10/18 00:18:23;;;;;;;12.73;9.50;;;-0.40;99.90;;;;;;8406291;28;20221;-59
2023/10/18 00:22:23;;;;;;;14.00;9.17;;;-0.40;99.90;;;;;;8406620;28;20287;-61
2023/10/18 00:26:24;;;;;;;15.03;9.80;;;-0.40;99.90;;;;;;8406416;28;20441;-60
2023/10/18 00:30:27;;;;;;;17.20;10.10;;;-0.50;99.90;;;;;;8408636;28;20273;-59
2023/10/18 00:34:28;;;;;;;16.17;10.43;;;-0.50;99.90;;;;;;8409927;28;20296;-61
2023/10/18 00:38:29;;;;;;;17.97;11.97;;;-0.50;99.90;;;;;;8404106;28;20255;-61
2023/10/18 00:42:29;;;;;;;19.97;10.97;;;-0.50;99.90;;;;;;8407245;28;20251;-60
2023/10/18 00:46:30;;;;;;;19.33;11.37;;;-0.50;99.90;;;;;;8402292;28;20184;-59
2023/10/18 00:50:31;;;;;;;20.13;11.67;;;-0.50;99.90;;;;;;8405408;28;20219;-58
2023/10/18 00:54:32;;;;;;;25.07;15.13;;;-0.50;99.90;;;;;;8404530;28;20253;-60
2023/10/18 00:58:34;;;;;;;24.17;15.43;;;-0.50;99.90;;;;;;8401765;28;20211;-60
2023/10/18 01:02:39;;;;;;;24.40;14.53;;;-0.50;99.90;;;;;;8402918;28;20199;-60
2023/10/18 01:06:44;;;;;;;22.13;13.03;;;-0.60;99.90;;;;;;8405925;28;20194;-60
2023/10/18 01:10:45;;;;;;;18.83;11.43;;;-0.60;99.90;;;;;;8403037;28;20327;-59
2023/10/18 01:14:46;;;;;;;17.80;12.17;;;-0.70;99.90;;;;;;8403085;28;20192;-59
2023/10/18 01:18:47;;;;;;;19.90;12.23;;;-0.80;99.90;;;;;;8402738;28;20190;-60
2023/10/18 01:22:51;;;;;;;15.93;10.23;;;-0.90;99.90;;;;;;8404520;28;20280;-61
2023/10/18 01:26:52;;;;;;;17.87;11.67;;;-0.90;99.90;;;;;;8405898;28;20173;-61
2023/10/18 01:30:53;;;;;;;17.77;11.13;;;-1.00;99.90;;;;;;8401707;28;20223;-58
2023/10/18 01:34:53;;;;;;;19.60;11.90;;;-1.10;99.90;;;;;;8403503;28;20186;-60
2023/10/18 01:38:56;;;;;;;18.30;11.20;;;-1.10;99.90;;;;;;8405872;28;20202;-59
2023/10/18 01:42:57;;;;;;;19.17;11.87;;;-1.10;99.90;;;;;;8403486;28;20198;-61
2023/10/18 01:47:04;;;;;;;19.83;11.07;;;-1.20;99.90;;;;;;8401164;28;20328;-59
2023/10/18 01:51:06;;;;;;;16.47;10.10;;;-1.30;99.90;;;;;;8401936;28;20287;-60
2023/10/18 01:55:09;;;;;;;17.63;10.50;;;-1.30;99.90;;;;;;8402861;28;20298;-60
2023/10/18 01:59:18;;;;;;;15.93;9.73;;;-1.40;99.90;;;;;;8401405;28;20214;-60
2023/10/18 02:03:19;;;;;;;16.47;9.90;;;-1.40;99.90;;;;;;8402964;28;20183;-59
2023/10/18 02:07:21;;;;;;;14.53;9.47;;;-1.50;99.90;;;;;;8403031;28;20182;-59
2023/10/18 02:11:22;;;;;;;15.93;9.57;;;-1.50;99.90;;;;;;8403523;28;20209;-60
2023/10/18 02:15:24;;;;;;;16.20;9.97;;;-1.60;99.90;;;;;;8403793;28;20187;-59
2023/10/18 02:19:27;;;;;;;15.53;9.60;;;-1.60;99.90;;;;;;8399190;28;20204;-59
2023/10/18 02:23:34;;;;;;;17.40;10.03;;;-1.60;99.90;;;;;;8402018;28;20215;-63
2023/10/18 02:27:36;;;;;;;15.90;9.87;;;-1.60;99.90;;;;;;8407556;28;20177;-63
2023/10/18 02:31:37;;;;;;;17.13;10.47;;;-1.60;99.90;;;;;;8401850;28;20315;-65
2023/10/18 02:35:40;;;;;;;19.87;10.67;;;-1.60;99.90;;;;;;8402295;28;20215;-64
2023/10/18 02:39:42;;;;;;;16.70;10.77;;;-1.70;99.90;;;;;;8403920;28;20180;-64
2023/10/18 02:43:46;;;;;;;16.23;10.90;;;-1.70;99.90;;;;;;8402041;28;20215;-64
2023/10/18 02:47:51;;;;;;;18.13;10.40;;;-1.80;99.90;;;;;;8393114;28;20509;-62
2023/10/18 02:51:51;;;;;;;20.20;11.40;;;-1.80;99.90;;;;;;8400472;28;20531;-64
2023/10/18 02:55:56;;;;;;;19.33;11.07;;;-1.80;99.90;;;;;;8401430;28;20414;-63
2023/10/18 03:00:09;;;;;;;16.83;10.47;;;-1.80;99.90;;;;;;8398563;28;20280;-62
2023/10/18 03:04:18;;;;;;;14.70;9.10;;;-1.90;99.90;;;;;;8400599;28;20217;-64
2023/10/18 03:08:20;;;;;;;19.20;10.03;;;-2.00;99.90;;;;;;8403034;28;20190;-63
2023/10/18 03:12:22;;;;;;;59.90;22.53;;;-2.00;99.90;;;;;;8400665;28;20226;-64
2023/10/18 03:20:37;;;;;;;18.43;10.00;;;-2.00;99.90;;;;;;8402675;28;20182;-62
2023/10/18 03:24:39;;;;;;;16.00;9.67;;;-2.00;99.90;;;;;;8399748;28;20204;-64
2023/10/18 03:28:43;;;;;;;13.50;8.73;;;-2.10;99.90;;;;;;8401246;28;20183;-64
2023/10/18 03:32:46;;;;;;;15.03;8.13;;;-2.10;99.90;;;;;;8401245;28;20178;-60
2023/10/18 03:36:51;;;;;;;13.67;8.03;;;-2.20;99.90;;;;;;8401778;28;20180;-60
2023/10/18 03:40:58;;;;;;;16.33;9.77;;;-2.20;99.90;;;;;;8398788;28;20398;-61
2023/10/18 03:45:21;;;;;;;17.30;10.33;;;-2.20;99.90;;;;;;8399799;28;20189;-61
2023/10/18 03:49:31;;;;;;;24.67;12.10;;;-2.30;99.90;;;;;;8394948;28;20201;-61
2023/10/18 03:53:32;;;;;;;23.97;12.20;;;-2.30;99.90;;;;;;8397307;28;20196;-61
2023/10/18 03:57:39;;;;;;;26.63;13.40;;;-2.30;99.90;;;;;;8400131;28;20182;-60
2023/10/18 04:01:41;;;;;;;20.47;11.23;;;-2.30;99.90;;;;;;8402171;28;20197;-59
2023/10/18 04:05:43;;;;;;;23.07;12.53;;;-2.30;99.90;;;;;;8391533;28;20237;-60
2023/10/18 04:09:47;;;;;;;21.47;12.67;;;-2.40;99.90;;;;;;8400016;28;20212;-60
2023/10/18 04:13:50;;;;;;;21.13;13.17;;;-2.40;99.90;;;;;;8400397;28;20269;-61
2023/10/18 04:22:13;;;;;;;23.73;14.00;;;-2.40;99.90;;;;;;8399858;28;20212;-60
2023/10/18 04:26:18;;;;;;;25.33;14.67;;;-2.40;99.90;;;;;;8399316;28;20560;-60
2023/10/18 04:30:22;;;;;;;41.63;21.73;;;-2.40;99.90;;;;;;8403104;28;20208;-61
2023/10/18 04:34:24;;;;;;;50.53;23.07;;;-2.50;99.90;;;;;;8403676;28;20268;-59
2023/10/18 04:38:36;;;;;;;44.67;21.17;;;-2.50;99.90;;;;;;8406294;28;20173;-59
2023/10/18 04:42:38;;;;;;;33.00;17.53;;;-2.60;99.90;;;;;;8403806;28;20181;-64
2023/10/18 04:46:39;;;;;;;29.73;16.57;;;-2.60;99.90;;;;;;8406330;28;20504;-63
2023/10/18 04:50:40;;;;;;;25.53;15.27;;;-2.60;99.90;;;;;;8406531;28;20199;-64
2023/10/18 04:54:53;;;;;;;22.53;11.70;;;-2.60;99.90;;;;;;8403700;28;20528;-63
2023/10/18 04:59:06;;;;;;;18.90;11.63;;;-2.70;99.90;;;;;;8403183;28;20281;-64
2023/10/18 05:03:13;;;;;;;15.70;9.23;;;-2.70;99.90;;;;;;8403765;28;20280;-64
2023/10/18 05:11:23;;;;;;;17.03;9.53;;;-2.70;99.90;;;;;;8403644;28;20217;-64
2023/10/18 05:15:33;;;;;;;15.10;9.27;;;-2.70;99.90;;;;;;8402536;28;20258;-63
2023/10/18 05:19:37;;;;;;;13.67;9.67;;;-2.70;99.90;;;;;;8404312;28;20189;-63
2023/10/18 05:23:41;;;;;;;16.87;10.20;;;-2.70;99.90;;;;;;8398041;28;20228;-63
2023/10/18 05:27:46;;;;;;;16.73;10.27;;;-2.80;99.90;;;;;;8395678;28;20185;-64
2023/10/18 05:32:06;;;;;;;18.50;10.93;;;-2.80;99.90;;;;;;8402814;28;20285;-64
2023/10/18 05:44:38;;;;;;;16.53;9.97;;;-2.70;99.90;;;;;;8401835;28;20186;-65
2023/10/18 05:48:42;;;;;;;19.33;11.07;;;-2.60;99.90;;;;;;8400283;28;20288;-64
2023/10/18 05:52:49;;;;;;;30.30;12.00;;;-2.50;99.90;;;;;;8404790;28;20276;-64
2023/10/18 05:56:52;;;;;;;20.37;10.83;;;-2.40;99.90;;;;;;8409150;28;20267;-64
2023/10/18 06:00:57;;;;;;;19.10;11.93;;;-2.20;99.90;;;;;;8408433;28;20209;-64
2023/10/18 06:04:58;;;;;;;25.80;13.40;;;-2.00;99.90;;;;;;8404122;28;20390;-63
2023/10/18 06:09:00;;;;;;;25.97;13.77;;;-1.90;99.90;;;;;;8404840;28;20255;-64
2023/10/18 06:13:10;;;;;;;36.10;19.47;;;-1.70;99.90;;;;;;8402639;28;20191;-64
2023/10/18 06:21:38;;;;;;;60.17;29.93;;;-1.50;99.90;;;;;;8395098;28;20317;-63
2023/10/18 06:25:45;;;;;;;35.53;18.57;;;-1.30;99.90;;;;;;8400133;28;20180;-64
2023/10/18 06:29:49;;;;;;;28.67;16.57;;;-1.20;99.90;;;;;;8391174;28;20727;-63
2023/10/18 06:33:54;;;;;;;35.20;19.97;;;-1.00;99.90;;;;;;8396262;28;20202;-61
2023/10/18 06:37:55;;;;;;;36.93;21.63;;;-0.90;99.90;;;;;;8399886;28;20189;-61
2023/10/18 06:41:56;;;;;;;35.87;20.90;;;-0.80;99.90;;;;;;8400078;28;20199;-61
2023/10/18 06:45:57;;;;;;;36.80;22.07;;;-0.70;99.90;;;;;;8395484;28;20397;-61
2023/10/18 06:49:59;;;;;;;43.83;24.00;;;-0.60;99.90;;;;;;8398243;28;20220;-63
2023/10/18 06:54:03;;;;;;;43.30;26.90;;;-0.40;99.90;;;;;;8399741;28;20203;-63
2023/10/18 06:58:13;;;;;;;55.73;34.00;;;-0.20;99.90;;;;;;8401745;28;20200;-63
2023/10/18 07:02:14;;;;;;;73.17;41.33;;;-0.10;99.90;;;;;;8400521;28;20407;-63
2023/10/18 07:06:24;;;;;;;93.87;57.83;;;0.10;99.90;;;;;;8397845;28;20196;-63
2023/10/18 07:10:53;;;;;;;114.93;75.33;;;0.20;99.90;;;;;;8400412;28;20200;-63
2023/10/18 07:14:46;;;;;;;118.57;75.60;;;0.40;99.90;;;;;;8397832;28;20195;-63
2023/10/18 07:19:03;;;;;;;100.17;66.83;;;0.60;99.90;;;;;;8399032;28;20246;-63
2023/10/18 07:23:04;;;;;;;101.00;64.17;;;0.90;99.90;;;;;;8400240;28;20181;-62
2023/10/18 07:27:08;;;;;;;93.60;63.47;;;1.10;99.90;;;;;;8397378;28;20281;-62
2023/10/18 07:31:10;;;;;;;70.50;47.77;;;1.40;99.90;;;;;;8413529;28;20216;-63
2023/10/18 07:35:26;;;;;;;63.03;42.57;;;1.80;99.90;;;;;;8397426;28;20299;-61
2023/10/18 07:39:26;;;;;;;68.00;47.17;;;2.10;99.90;;;;;;8399268;28;20394;-61
2023/10/18 07:43:32;;;;;;;66.50;38.70;;;2.40;99.90;;;;;;8398579;28;20227;-61
2023/10/18 07:47:37;;;;;;;51.67;31.63;;;2.70;99.90;;;;;;8395537;28;20273;-61
2023/10/18 07:51:48;;;;;;;42.87;26.17;;;3.00;99.90;;;;;;8400075;28;20219;-62
2023/10/18 07:55:56;;;;;;;37.20;23.67;;;3.20;99.90;;;;;;8399877;28;20293;-61
2023/10/18 08:00:21;;;;;;;49.60;30.97;;;3.50;99.90;;;;;;8399124;28;20268;-61
2023/10/18 08:04:22;;;;;;;47.33;30.60;;;3.60;99.90;;;;;;8399336;28;20220;-62
2023/10/18 08:08:25;;;;;;;49.13;30.70;;;3.90;99.90;;;;;;8400363;28;20187;-62
2023/10/18 08:12:33;;;;;;;48.60;30.23;;;4.10;99.90;;;;;;8404845;28;20204;-62
2023/10/18 08:16:52;;;;;;;50.17;32.10;;;4.30;99.90;;;;;;8399724;28;20180;-62
2023/10/18 08:24:54;;;;;;;42.13;25.27;;;4.90;99.90;;;;;;8403721;28;20196;-61
2023/10/18 08:28:55;;;;;;;25.97;17.63;;;5.30;99.90;;;;;;8405685;28;20189;-63
2023/10/18 08:32:55;;;;;;;21.37;15.23;;;5.70;99.90;;;;;;8404630;28;20267;-64
2023/10/18 08:37:04;;;;;;;33.60;19.43;;;6.10;99.90;;;;;;8395936;28;20188;-63
2023/10/18 08:41:13;;;;;;;72.37;33.47;;;6.40;99.90;;;;;;8404015;28;20199;-64
2023/10/18 08:45:19;;;;;;;21.90;14.93;;;6.70;99.90;;;;;;8404149;28;20195;-63
2023/10/18 08:49:23;;;;;;;30.80;24.67;;;7.00;99.90;;;;;;8401212;28;20306;-62
2023/10/18 08:53:31;;;;;;;19.43;13.43;;;7.30;99.90;;;;;;8402400;28;20249;-64
2023/10/18 08:57:35;;;;;;;17.83;11.00;;;7.50;99.90;;;;;;8403476;28;20287;-61
2023/10/18 09:01:36;;;;;;;15.03;9.93;;;7.80;99.90;;;;;;8403122;28;20235;-63
2023/10/18 09:05:38;;;;;;;13.80;9.67;;;8.10;99.90;;;;;;8403631;28;20197;-64
2023/10/18 09:09:42;;;;;;;12.93;9.50;;;8.30;99.90;;;;;;8401885;28;20205;-63
2023/10/18 09:14:06;;;;;;;21.93;15.97;;;8.60;99.90;;;;;;8401123;28;20589;-64
2023/10/18 09:18:05;;;;;;;15.50;8.77;;;8.80;99.90;;;;;;8402793;28;20189;-62
2023/10/18 09:22:07;;;;;;;11.97;7.33;;;9.10;99.90;;;;;;8400292;28;20232;-62
2023/10/18 09:30:18;;;;;;;10.80;7.33;;;9.50;90.40;;;;;;8403764;28;20238;-65
2023/10/18 09:34:19;;;;;;;10.50;7.17;;;9.60;1.00;;;;;;8400215;28;20253;-62
2023/10/18 09:38:21;;;;;;;11.27;8.73;;;9.80;1.00;;;;;;8403264;28;21609;-62
2023/10/18 09:42:22;;;;;;;9.60;7.60;;;10.00;1.00;;;;;;8406240;28;20199;-64
2023/10/18 09:46:24;;;;;;;17.53;10.93;;;10.10;1.00;;;;;;8399682;28;20187;-66
2023/10/18 09:50:31;;;;;;;18.40;12.97;;;10.30;1.00;;;;;;8401030;28;20673;-64
2023/10/18 09:54:36;;;;;;;11.57;7.80;;;10.40;1.00;;;;;;8401523;28;20207;-70
2023/10/18 09:58:42;;;;;;;18.07;9.60;;;10.50;1.00;;;;;;8400405;28;20265;-64
2023/10/18 10:02:52;;;;;;;11.57;7.23;;;10.60;1.00;;;;;;8400493;28;20191;-67
2023/10/18 10:06:55;;;;;;;8.83;6.13;;;10.80;1.00;;;;;;8400598;28;20219;-62
2023/10/18 10:11:04;;;;;;;9.17;5.63;;;10.90;1.00;;;;;;8405565;28;20227;-66
2023/10/18 10:15:13;;;;;;;7.90;6.40;;;11.00;1.00;;;;;;8402639;28;20191;-65
2023/10/18 10:19:15;;;;;;;8.47;5.43;;;11.10;1.00;;;;;;8403704;28;20271;-63
2023/10/18 10:23:17;;;;;;;9.30;5.70;;;11.20;1.00;;;;;;8416838;28;20192;-65
2023/10/18 10:31:56;;;;;;;10.30;6.60;;;11.60;1.00;;;;;;8400743;28;20224;-68
2023/10/18 10:36:05;;;;;;;9.53;6.10;;;11.60;1.00;;;;;;8401550;28;20196;-64
2023/10/18 10:40:36;;;;;;;9.33;5.97;;;11.70;1.00;;;;;;8399851;28;20493;-64
2023/10/18 10:45:10;;;;;;;8.83;5.33;;;11.80;1.00;;;;;;8402579;28;20333;-65
2023/10/18 10:49:58;;;;;;;8.47;5.53;;;11.80;1.00;;;;;;8398854;28;20584;-64
2023/10/18 10:53:58;;;;;;;13.57;6.73;;;12.00;1.00;;;;;;8402047;28;20245;-63
2023/10/18 10:58:15;;;;;;;6.83;4.93;;;12.10;1.00;;;;;;8400460;28;20184;-64
2023/10/18 11:02:24;;;;;;;8.23;5.60;;;12.10;1.00;;;;;;8396827;28;20208;-70
2023/10/18 11:06:32;;;;;;;5.17;3.97;;;12.10;1.00;;;;;;8399996;28;20189;-68
2023/10/18 11:10:39;;;;;;;6.30;4.70;;;12.10;1.00;;;;;;8398805;28;21151;-66
2023/10/18 11:14:44;;;;;;;12.77;6.73;;;12.20;1.00;;;;;;8400479;28;20173;-64
2023/10/18 11:18:48;;;;;;;6.07;4.07;;;12.20;1.00;;;;;;8400807;28;20181;-67
2023/10/18 11:22:50;;;;;;;6.43;4.37;;;12.30;1.00;;;;;;8399887;28;20191;-67
2023/10/18 11:26:51;;;;;;;5.90;4.10;;;12.30;1.00;;;;;;8398804;28;20188;-63
2023/10/18 11:30:53;;;;;;;7.43;4.37;;;12.40;1.00;;;;;;8399288;28;20243;-64
2023/10/18 11:35:10;;;;;;;6.10;5.13;;;12.50;1.00;;;;;;8400266;28;20188;-72
2023/10/18 11:43:26;;;;;;;6.20;4.67;;;12.50;1.00;;;;;;8407810;28;20180;-65
2023/10/18 11:47:29;;;;;;;8.77;4.90;;;12.60;1.00;;;;;;8409190;28;20173;-68
2023/10/18 11:51:44;;;;;;;7.43;4.70;;;12.60;1.00;;;;;;8408411;28;20212;-64
2023/10/18 11:56:11;;;;;;;6.67;4.90;;;12.70;1.00;;;;;;8409805;28;20264;-69
2023/10/18 12:04:27;;;;;;;6.80;5.40;;;12.80;1.00;;;;;;8410839;28;20200;-65
2023/10/18 12:08:30;;;;;;;7.57;4.80;;;12.80;1.00;;;;;;8409231;28;20245;-65
2023/10/18 12:12:32;;;;;;;9.13;6.13;;;12.80;1.00;;;;;;8410849;28;20268;-61
2023/10/18 12:16:33;;;;;;;6.40;4.80;;;12.90;1.00;;;;;;8407730;28;20215;-66
2023/10/18 12:20:37;;;;;;;8.03;5.03;;;12.90;1.00;;;;;;8412318;28;20190;-68
2023/10/18 12:24:38;;;;;;;6.50;5.10;;;12.90;1.00;;;;;;8408565;28;20185;-68
2023/10/18 12:28:41;;;;;;;6.33;5.43;;;12.90;1.00;;;;;;8409597;28;20275;-62
2023/10/18 12:32:42;;;;;;;9.30;5.90;;;13.00;1.00;;;;;;8407811;28;20201;-66
2023/10/18 12:36:49;;;;;;;6.67;5.20;;;12.90;1.00;;;;;;8407940;28;20267;-64
2023/10/18 12:40:54;;;;;;;8.57;7.47;;;12.90;1.00;;;;;;8408358;28;20184;-66
2023/10/18 12:44:59;;;;;;;11.10;7.37;;;13.00;1.00;;;;;;8408510;28;20613;-67
2023/10/18 12:49:00;;;;;;;7.80;5.43;;;13.10;1.00;;;;;;8406601;28;20180;-69
2023/10/18 12:57:20;;;;;;;14.53;8.53;;;13.00;1.00;;;;;;8402843;28;20254;-63
2023/10/18 13:01:48;;;;;;;13.57;8.27;;;13.10;1.00;;;;;;8402293;28;20211;-64
2023/10/18 13:05:52;;;;;;;12.50;7.20;;;13.00;1.00;;;;;;8400838;28;20192;-66
2023/10/18 13:09:54;;;;;;;13.10;8.80;;;13.10;1.00;;;;;;8403677;28;20213;-65
2023/10/18 13:13:55;;;;;;;10.17;6.90;;;13.10;1.00;;;;;;8402252;28;20307;-64
2023/10/18 13:17:56;;;;;;;9.03;6.07;;;13.10;1.00;;;;;;8402723;28;20184;-63
2023/10/18 13:21:58;;;;;;;10.17;6.57;;;13.10;1.00;;;;;;8399942;28;20191;-64
2023/10/18 13:26:00;;;;;;;8.80;6.13;;;13.10;1.00;;;;;;8402312;28;20276;-67
2023/10/18 13:30:09;;;;;;;11.67;6.97;;;13.20;1.00;;;;;;8402497;28;20255;-62
2023/10/18 13:34:18;;;;;;;14.73;9.30;;;13.20;1.00;;;;;;8401856;28;20374;-66
2023/10/18 13:38:22;;;;;;;10.53;7.07;;;13.10;1.00;;;;;;8404320;28;20177;-66
2023/10/18 13:42:24;;;;;;;7.23;6.13;;;13.00;1.00;;;;;;8401383;28;20394;-67
2023/10/18 13:46:25;;;;;;;7.07;5.90;;;13.00;1.00;;;;;;8401768;28;20189;-64
2023/10/18 13:50:26;;;;;;;13.43;9.77;;;13.00;1.00;;;;;;8396976;28;20520;-65
2023/10/18 13:54:28;;;;;;;11.43;6.30;;;13.00;1.00;;;;;;8401923;28;20188;-66
2023/10/18 13:58:29;;;;;;;8.03;6.57;;;13.00;1.00;;;;;;8402206;28;20857;-65
2023/10/18 14:02:31;;;;;;;15.70;8.77;;;12.90;1.00;;;;;;8399671;28;20279;-64
2023/10/18 14:06:35;;;;;;;50.03;27.57;;;12.90;1.00;;;;;;8398077;28;20185;-67
2023/10/18 14:10:36;;;;;;;11.07;7.83;;;12.80;1.00;;;;;;8402085;28;20313;-63
2023/10/18 14:14:37;;;;;;;12.43;7.67;;;12.70;1.00;;;;;;8399045;28;20177;-66
2023/10/18 14:18:43;;;;;;;17.63;12.00;;;12.70;1.00;;;;;;8400812;28;20230;-64
2023/10/18 14:22:44;;;;;;;16.40;10.90;;;12.60;1.00;;;;;;8401751;28;20185;-67
2023/10/18 14:26:45;;;;;;;14.67;10.37;;;12.50;1.00;;;;;;8400428;28;20180;-64
2023/10/18 14:30:46;;;;;;;10.17;9.17;;;12.50;1.00;;;;;;8399628;28;20223;-68
2023/10/18 14:34:49;;;;;;;19.10;11.97;;;12.40;1.00;;;;;;8399730;28;20341;-66
2023/10/18 14:38:50;;;;;;;16.97;10.50;;;12.20;1.00;;;;;;8400280;28;20211;-62
2023/10/18 14:42:52;;;;;;;16.63;9.10;;;12.00;1.00;;;;;;8398070;28;20185;-63
2023/10/18 14:46:55;;;;;;;7.27;5.77;;;11.90;1.00;;;;;;8400323;28;20251;-64
2023/10/18 14:50:56;;;;;;;11.97;8.77;;;11.70;1.00;;;;;;8401851;28;20208;-65
2023/10/18 14:54:57;;;;;;;19.97;11.00;;;11.60;1.00;;;;;;8399616;28;20294;-64
2023/10/18 14:58:58;;;;;;;20.60;13.17;;;11.40;1.00;;;;;;8396328;28;20211;-64
2023/10/18 15:02:58;;;;;;;17.80;12.83;;;11.20;1.00;;;;;;8400072;28;20275;-62
2023/10/18 15:06:59;;;;;;;16.27;10.70;;;11.00;1.00;;;;;;8399769;28;20284;-62
2023/10/18 15:11:10;;;;;;;25.13;17.20;;;10.80;1.00;;;;;;8399749;28;20212;-63
2023/10/18 15:15:14;;;;;;;27.70;18.03;;;10.70;1.00;;;;;;8400918;28;20378;-61
2023/10/18 15:19:15;;;;;;;38.17;22.83;;;10.50;1.00;;;;;;8400613;28;20211;-62
2023/10/18 15:23:17;;;;;;;44.30;28.53;;;10.40;1.00;;;;;;8391702;28;20253;-64
2023/10/18 15:27:18;;;;;;;38.03;24.60;;;10.20;1.00;;;;;;8398241;28;20187;-63
2023/10/18 15:31:19;;;;;;;31.93;20.17;;;10.10;1.00;;;;;;8398370;28;20203;-65
2023/10/18 15:35:21;;;;;;;36.70;24.03;;;9.90;1.00;;;;;;8398207;28;20494;-61
2023/10/18 15:39:23;;;;;;;47.33;31.90;;;9.80;1.00;;;;;;8398445;28;20198;-62
2023/10/18 15:43:26;;;;;;;42.37;30.73;;;9.60;1.00;;;;;;8396099;28;20296;-61
2023/10/18 15:47:28;;;;;;;44.50;27.43;;;9.40;1.00;;;;;;8397027;28;20194;-64
2023/10/18 15:51:31;;;;;;;41.47;25.97;;;9.20;1.00;;;;;;8400115;28;20483;-61
2023/10/18 15:55:31;;;;;;;30.40;21.40;;;8.90;1.00;;;;;;8397776;28;20202;-65
2023/10/18 15:59:34;;;;;;;28.70;20.47;;;8.70;1.00;;;;;;8400691;28;20210;-65
2023/10/18 16:03:35;;;;;;;34.00;22.33;;;8.50;1.00;;;;;;8396570;28;20488;-62
2023/10/18 16:07:36;;;;;;;27.47;16.77;;;8.20;1.00;;;;;;8400150;28;20268;-63
2023/10/18 16:11:41;;;;;;;36.63;19.50;;;8.00;1.00;;;;;;8393333;28;20234;-65
2023/10/18 16:15:42;;;;;;;24.77;13.33;;;7.70;24.00;;;;;;8400823;28;20244;-63
2023/10/18 16:19:48;;;;;;;18.27;10.93;;;7.40;44.60;;;;;;8402025;28;20195;-63
2023/10/18 16:23:50;;;;;;;14.87;9.20;;;7.20;80.70;;;;;;8396605;28;20276;-62
2023/10/18 16:27:52;;;;;;;11.53;7.90;;;6.90;99.90;;;;;;8397537;28;20193;-63
2023/10/18 16:31:52;;;;;;;9.97;7.40;;;6.70;99.90;;;;;;8405917;28;20212;-60
2023/10/18 16:35:59;;;;;;;11.63;8.80;;;6.40;99.90;;;;;;8404028;28;20187;-60
2023/10/18 16:40:00;;;;;;;10.20;8.10;;;6.20;99.90;;;;;;8399651;28;20181;-60
2023/10/18 16:44:01;;;;;;;12.00;9.00;;;6.00;99.90;;;;;;8401712;28;20185;-59
2023/10/18 16:48:04;;;;;;;15.33;9.67;;;5.90;99.90;;;;;;8405535;28;20184;-61
2023/10/18 16:52:05;;;;;;;15.27;10.30;;;5.70;99.90;;;;;;8404271;28;20208;-59
2023/10/18 16:56:08;;;;;;;24.90;14.23;;;5.60;99.90;;;;;;8402588;28;20195;-60
2023/10/18 17:00:14;;;;;;;30.53;19.20;;;5.50;1.00;;;;;;8403435;28;20205;-61
2023/10/18 17:04:15;;;;;;;23.97;14.50;;;5.40;1.00;;;;;;8406617;28;20208;-60
2023/10/18 17:08:16;;;;;;;17.43;11.40;;;5.40;1.00;;;;;;8404348;28;20188;-59
2023/10/18 17:12:17;;;;;;;20.87;13.27;;;5.20;1.00;;;;;;8403777;28;20208;-61
2023/10/18 17:16:19;;;;;;;18.03;12.10;;;5.10;68.70;;;;;;8403062;28;20184;-60
2023/10/18 17:20:20;;;;;;;26.70;16.40;;;5.00;90.70;;;;;;8402914;28;20216;-60
2023/10/18 17:24:21;;;;;;;22.37;13.83;;;4.90;99.90;;;;;;8402826;28;20639;-66
2023/10/18 17:28:22;;;;;;;16.33;10.93;;;4.90;99.90;;;;;;8403976;28;20272;-65
2023/10/18 17:32:22;;;;;;;46.57;23.40;;;4.80;99.90;;;;;;8395113;28;20232;-65
2023/10/18 17:36:24;;;;;;;47.57;25.77;;;4.70;1.00;;;;;;8405214;28;20226;-63
2023/10/18 17:40:25;;;;;;;33.90;18.93;;;4.80;1.00;;;;;;8401374;28;20291;-65
2023/10/18 17:44:26;;;;;;;23.40;14.63;;;4.80;99.90;;;;;;8403977;28;20190;-65
2023/10/18 17:48:28;;;;;;;25.63;14.47;;;4.70;95.10;;;;;;8398081;28;20195;-66
2023/10/18 17:52:29;;;;;;;45.17;20.73;;;4.50;1.00;;;;;;8401360;28;20235;-64
2023/10/18 17:56:30;;;;;;;42.13;21.93;;;4.40;99.90;;;;;;8401676;28;20188;-66
2023/10/18 18:00:39;;;;;;;34.57;18.70;;;4.30;99.90;;;;;;8404051;28;20321;-64
2023/10/18 18:04:42;;;;;;;34.03;20.57;;;4.20;99.90;;;;;;8402505;28;20260;-65
2023/10/18 18:08:42;;;;;;;39.93;23.60;;;4.10;99.90;;;;;;8404001;28;20200;-65
2023/10/18 18:12:44;;;;;;;31.77;19.53;;;4.00;99.90;;;;;;8400933;28;20212;-65
2023/10/18 18:16:45;;;;;;;26.33;15.67;;;3.90;99.90;;;;;;8397572;28;20235;-64
2023/10/18 18:20:48;;;;;;;40.73;23.03;;;3.80;99.90;;;;;;8404254;28;20268;-63
2023/10/18 18:24:49;;;;;;;37.10;23.03;;;3.80;99.90;;;;;;8402572;28;20252;-65
2023/10/18 18:28:50;;;;;;;42.30;24.20;;;3.70;99.90;;;;;;8399489;28;20198;-64
2023/10/18 18:32:51;;;;;;;35.43;21.43;;;3.60;99.90;;;;;;8401518;28;20523;-64
2023/10/18 18:36:52;;;;;;;32.60;20.93;;;3.60;99.90;;;;;;8396021;28;20184;-65
2023/10/18 18:40:54;;;;;;;37.17;21.03;;;3.50;1.00;;;;;;8399117;28;20188;-65
2023/10/18 18:44:55;;;;;;;20.17;13.17;;;3.50;96.60;;;;;;8401548;28;20199;-60
2023/10/18 18:48:56;;;;;;;14.53;9.73;;;3.50;99.90;;;;;;8400695;28;20191;-60
2023/10/18 18:52:57;;;;;;;10.47;8.30;;;3.30;99.90;;;;;;8399260;28;20212;-66
2023/10/18 18:56:58;;;;;;;19.10;14.13;;;3.20;99.90;;;;;;8400736;28;20185;-63
2023/10/18 19:00:59;;;;;;;34.73;24.80;;;3.10;99.90;;;;;;8399694;28;20211;-65
2023/10/18 19:05:00;;;;;;;29.33;21.23;;;3.20;1.00;;;;;;8400583;28;20179;-62
2023/10/18 19:09:04;;;;;;;131.57;53.37;;;3.10;99.90;;;;;;8402153;28;20199;-59
2023/10/18 19:13:06;;;;;;;50.20;30.67;;;3.20;1.00;;;;;;8398586;28;20214;-62
2023/10/18 19:17:11;;;;;;;131.17;45.63;;;3.50;99.90;;;;;;8400826;28;20177;-62
2023/10/18 19:21:13;;;;;;;92.37;34.43;;;3.80;99.90;;;;;;8398428;28;20245;-60
2023/10/18 19:25:18;;;;;;;39.60;26.47;;;4.10;99.90;;;;;;8400247;28;20456;-59
2023/10/18 19:29:21;;;;;;;182.23;63.20;;;4.30;99.90;;;;;;8399995;28;20212;-57
2023/10/18 19:33:23;;;;;;;118.43;43.87;;;4.40;99.90;;;;;;8400234;28;20188;-62
2023/10/18 19:37:24;;;;;;;194.53;103.97;;;4.50;99.90;;;;;;8398574;28;20184;-59
2023/10/18 19:41:25;;;;;;;147.53;62.50;;;4.70;1.00;;;;;;8399658;28;20177;-58
2023/10/18 19:45:26;;;;;;;121.93;47.77;;;4.70;99.90;;;;;;8395985;28;20208;-60
2023/10/18 19:49:27;;;;;;;78.30;34.03;;;4.80;1.00;;;;;;8399940;28;20267;-61
2023/10/18 19:53:29;;;;;;;34.00;18.10;;;4.90;99.90;;;;;;8398383;28;20203;-60
2023/10/18 19:57:33;;;;;;;30.80;22.17;;;5.00;99.90;;;;;;8401176;28;20219;-62
2023/10/18 20:01:34;;;;;;;28.07;15.50;;;5.10;1.00;;;;;;8400565;28;20443;-60
2023/10/18 20:05:36;;;;;;;52.77;20.17;;;5.10;99.90;;;;;;8405210;28;20192;-58
2023/10/18 20:09:38;;;;;;;79.67;31.50;;;5.20;99.90;;;;;;8407616;28;20488;-62
2023/10/18 20:13:39;;;;;;;53.37;22.57;;;5.20;99.90;;;;;;8406673;28;20169;-60
2023/10/18 20:17:40;;;;;;;73.00;27.13;;;5.20;99.90;;;;;;8407045;28;20184;-59
2023/10/18 20:21:42;;;;;;;170.33;52.30;;;5.20;99.90;;;;;;8409851;28;20384;-62
2023/10/18 20:25:43;;;;;;;85.47;40.63;;;5.10;99.90;;;;;;8405101;28;20196;-60
2023/10/18 20:29:44;;;;;;;144.33;62.60;;;5.10;99.90;;;;;;8404943;28;20216;-58
2023/10/18 20:33:45;;;;;;;189.03;69.87;;;5.00;99.90;;;;;;8405805;28;20221;-62
2023/10/18 20:37:46;;;;;;;105.60;47.57;;;5.00;99.90;;;;;;8403745;28;20181;-59
2023/10/18 20:41:46;;;;;;;43.67;22.90;;;5.00;99.90;;;;;;8405796;28;20193;-59
2023/10/18 20:45:50;;;;;;;55.80;29.20;;;5.00;99.90;;;;;;8404646;28;20188;-60
2023/10/18 20:49:52;;;;;;;22.17;14.07;;;5.00;99.90;;;;;;8401789;28;20240;-59
2023/10/18 20:53:52;;;;;;;25.27;14.73;;;5.00;99.90;;;;;;8405924;28;20223;-59
2023/10/18 20:57:54;;;;;;;25.70;15.53;;;5.00;99.90;;;;;;8403496;28;20193;-60
2023/10/18 21:02:00;;;;;;;32.10;18.37;;;5.00;99.90;;;;;;8400749;28;20277;-59
2023/10/18 21:06:09;;;;;;;21.40;13.70;;;5.00;99.90;;;;;;8401886;28;20199;-59
2023/10/18 21:10:13;;;;;;;25.10;15.37;;;4.90;99.90;;;;;;8402776;28;20220;-60
2023/10/18 21:14:16;;;;;;;32.47;17.13;;;4.90;99.90;;;;;;8402983;28;20184;-61
2023/10/18 21:18:18;;;;;;;27.07;14.47;;;5.00;99.90;;;;;;8403604;28;20197;-61
2023/10/18 21:22:19;;;;;;;22.17;14.43;;;5.00;99.90;;;;;;8406709;28;20184;-61
2023/10/18 21:26:20;;;;;;;25.37;14.60;;;5.00;99.90;;;;;;8404105;28;20185;-60
2023/10/18 21:30:22;;;;;;;17.47;11.67;;;5.00;99.90;;;;;;8405020;28;20200;-60
2023/10/18 21:34:23;;;;;;;25.03;15.87;;;5.00;99.90;;;;;;8403589;28;20232;-59
2023/10/18 21:38:24;;;;;;;26.07;15.27;;;4.90;99.90;;;;;;8404444;28;20242;-59
2023/10/18 21:42:26;;;;;;;21.67;13.47;;;4.80;99.90;;;;;;8404016;28;20238;-60
2023/10/18 21:46:26;;;;;;;15.73;11.30;;;4.70;99.90;;;;;;8405914;28;20188;-60